sensor_id;sensor_type;location;lat;lon;timestamp;P1;durP1;ratioP1;P2;durP2;ratioP2
10074;SDS011;5076;42.680;23.288;2022-07-06T00:02:25;9.60;;;8.70;;
10074;SDS011;5076;42.680;23.288;2022-07-06T00:04:51;9.60;;;8.70;;
10074;SDS011;5076;42.680;23.288;2022-07-06T00:07:18;9.13;;;8.33;;
10074;SDS011;5076;42.680;23.288;2022-07-06T00:09:46;10.80;;;8.70;;
10074;SDS011;5076;42.680;23.288;2022-07-06T00:12:13;9.17;;;8.33;;
10074;SDS011;5076;42.680;23.288;2022-07-06T00:14:39;9.93;;;8.97;;
10074;SDS011;5076;42.680;23.288;2022-07-06T00:17:06;11.60;;;9.70;;
10074;SDS011;5076;42.680;23.288;2022-07-06T00:19:32;10.47;;;9.30;;
10074;SDS011;5076;42.680;23.288;2022-07-06T00:21:59;11.17;;;10.07;;
10074;SDS011;5076;42.680;23.288;2022-07-06T00:24:25;13.60;;;11.97;;
10074;SDS011;5076;42.680;23.288;2022-07-06T00:26:53;13.43;;;12.20;;
10074;SDS011;5076;42.680;23.288;2022-07-06T00:29:20;13.93;;;12.63;;
10074;SDS011;5076;42.680;23.288;2022-07-06T00:31:47;12.87;;;11.67;;
10074;SDS011;5076;42.680;23.288;2022-07-06T00:34:13;10.80;;;9.83;;
10074;SDS011;5076;42.680;23.288;2022-07-06T00:36:40;11.93;;;10.83;;
10074;SDS011;5076;42.680;23.288;2022-07-06T00:39:06;12.87;;;11.13;;
10074;SDS011;5076;42.680;23.288;2022-07-06T00:41:33;12.10;;;10.90;;
10074;SDS011;5076;42.680;23.288;2022-07-06T00:44:05;13.33;;;10.93;;
10074;SDS011;5076;42.680;23.288;2022-07-06T00:46:33;12.43;;;11.13;;
10074;SDS011;5076;42.680;23.288;2022-07-06T00:48:59;13.23;;;11.83;;
10074;SDS011;5076;42.680;23.288;2022-07-06T00:51:27;12.70;;;11.40;;
10074;SDS011;5076;42.680;23.288;2022-07-06T00:53:54;12.53;;;11.33;;
10074;SDS011;5076;42.680;23.288;2022-07-06T00:56:21;12.43;;;11.23;;
10074;SDS011;5076;42.680;23.288;2022-07-06T00:58:48;14.27;;;11.20;;
10074;SDS011;5076;42.680;23.288;2022-07-06T01:01:16;13.00;;;11.80;;
10074;SDS011;5076;42.680;23.288;2022-07-06T01:03:42;12.67;;;11.47;;
10074;SDS011;5076;42.680;23.288;2022-07-06T01:06:09;14.37;;;12.87;;
10074;SDS011;5076;42.680;23.288;2022-07-06T01:08:37;13.50;;;12.13;;
10074;SDS011;5076;42.680;23.288;2022-07-06T01:11:03;13.47;;;12.27;;
10074;SDS011;5076;42.680;23.288;2022-07-06T01:13:30;12.77;;;11.57;;
10074;SDS011;5076;42.680;23.288;2022-07-06T01:15:57;12.60;;;11.50;;
10074;SDS011;5076;42.680;23.288;2022-07-06T01:18:25;13.53;;;12.07;;
10074;SDS011;5076;42.680;23.288;2022-07-06T01:21:03;13.10;;;11.83;;
10074;SDS011;5076;42.680;23.288;2022-07-06T01:23:30;14.00;;;12.50;;
10074;SDS011;5076;42.680;23.288;2022-07-06T01:25:57;14.07;;;12.23;;
10074;SDS011;5076;42.680;23.288;2022-07-06T01:28:23;13.17;;;11.87;;
10074;SDS011;5076;42.680;23.288;2022-07-06T01:30:50;13.87;;;12.47;;
10074;SDS011;5076;42.680;23.288;2022-07-06T01:33:16;13.27;;;11.83;;
10074;SDS011;5076;42.680;23.288;2022-07-06T01:35:43;12.80;;;11.30;;
10074;SDS011;5076;42.680;23.288;2022-07-06T01:38:12;11.83;;;10.60;;
10074;SDS011;5076;42.680;23.288;2022-07-06T01:40:39;12.07;;;10.50;;
10074;SDS011;5076;42.680;23.288;2022-07-06T01:43:05;11.70;;;10.63;;
10074;SDS011;5076;42.680;23.288;2022-07-06T01:45:32;11.00;;;10.00;;
10074;SDS011;5076;42.680;23.288;2022-07-06T01:47:58;11.00;;;9.83;;
10074;SDS011;5076;42.680;23.288;2022-07-06T01:50:25;12.43;;;10.17;;
10074;SDS011;5076;42.680;23.288;2022-07-06T01:52:51;10.43;;;9.33;;
10074;SDS011;5076;42.680;23.288;2022-07-06T01:55:19;10.90;;;9.80;;
10074;SDS011;5076;42.680;23.288;2022-07-06T01:57:46;10.03;;;8.90;;
10074;SDS011;5076;42.680;23.288;2022-07-06T02:00:13;10.30;;;9.30;;
10074;SDS011;5076;42.680;23.288;2022-07-06T02:02:39;9.93;;;8.93;;
10074;SDS011;5076;42.680;23.288;2022-07-06T02:05:06;9.20;;;8.30;;
10074;SDS011;5076;42.680;23.288;2022-07-06T02:07:33;12.27;;;8.77;;
10074;SDS011;5076;42.680;23.288;2022-07-06T02:09:59;8.83;;;7.93;;
10074;SDS011;5076;42.680;23.288;2022-07-06T02:12:27;8.87;;;7.93;;
10074;SDS011;5076;42.680;23.288;2022-07-06T02:14:54;9.57;;;8.57;;
10074;SDS011;5076;42.680;23.288;2022-07-06T02:17:20;10.60;;;8.10;;
10074;SDS011;5076;42.680;23.288;2022-07-06T02:19:47;9.30;;;7.57;;
10074;SDS011;5076;42.680;23.288;2022-07-06T02:22:13;8.33;;;7.57;;
10074;SDS011;5076;42.680;23.288;2022-07-06T02:24:40;8.40;;;7.20;;
10074;SDS011;5076;42.680;23.288;2022-07-06T02:27:06;7.80;;;7.10;;
10074;SDS011;5076;42.680;23.288;2022-07-06T02:29:34;7.57;;;6.87;;
10074;SDS011;5076;42.680;23.288;2022-07-06T02:32:01;9.30;;;6.63;;
10074;SDS011;5076;42.680;23.288;2022-07-06T02:34:27;8.30;;;7.50;;
10074;SDS011;5076;42.680;23.288;2022-07-06T02:36:54;8.57;;;7.73;;
10074;SDS011;5076;42.680;23.288;2022-07-06T02:39:20;8.10;;;7.40;;
10074;SDS011;5076;42.680;23.288;2022-07-06T02:41:47;8.20;;;7.50;;
10074;SDS011;5076;42.680;23.288;2022-07-06T02:44:13;9.47;;;7.60;;
10074;SDS011;5076;42.680;23.288;2022-07-06T02:46:41;10.37;;;8.90;;
10074;SDS011;5076;42.680;23.288;2022-07-06T02:49:08;9.63;;;8.37;;
10074;SDS011;5076;42.680;23.288;2022-07-06T02:51:34;9.87;;;8.97;;
10074;SDS011;5076;42.680;23.288;2022-07-06T02:54:01;10.27;;;9.10;;
10074;SDS011;5076;42.680;23.288;2022-07-06T02:56:27;10.53;;;9.63;;
10074;SDS011;5076;42.680;23.288;2022-07-06T02:58:54;10.13;;;9.13;;
10074;SDS011;5076;42.680;23.288;2022-07-06T03:01:20;10.10;;;9.20;;
10074;SDS011;5076;42.680;23.288;2022-07-06T03:03:48;9.23;;;8.40;;
10074;SDS011;5076;42.680;23.288;2022-07-06T03:06:15;10.20;;;9.20;;
10074;SDS011;5076;42.680;23.288;2022-07-06T03:08:41;9.37;;;8.47;;
10074;SDS011;5076;42.680;23.288;2022-07-06T03:11:08;9.87;;;8.97;;
10074;SDS011;5076;42.680;23.288;2022-07-06T03:13:35;9.77;;;8.77;;
10074;SDS011;5076;42.680;23.288;2022-07-06T03:16:02;8.90;;;8.10;;
10074;SDS011;5076;42.680;23.288;2022-07-06T03:18:28;8.07;;;7.37;;
10074;SDS011;5076;42.680;23.288;2022-07-06T03:20:56;9.30;;;7.60;;
10074;SDS011;5076;42.680;23.288;2022-07-06T03:23:23;8.47;;;7.60;;
10074;SDS011;5076;42.680;23.288;2022-07-06T03:25:49;8.27;;;7.43;;
10074;SDS011;5076;42.680;23.288;2022-07-06T03:28:16;7.40;;;6.80;;
10074;SDS011;5076;42.680;23.288;2022-07-06T03:30:42;8.17;;;6.37;;
10074;SDS011;5076;42.680;23.288;2022-07-06T03:33:09;6.87;;;5.93;;
10074;SDS011;5076;42.680;23.288;2022-07-06T03:35:35;6.77;;;5.80;;
10074;SDS011;5076;42.680;23.288;2022-07-06T03:38:03;6.23;;;5.63;;
10074;SDS011;5076;42.680;23.288;2022-07-06T03:40:30;6.37;;;5.37;;
10074;SDS011;5076;42.680;23.288;2022-07-06T03:42:56;6.10;;;4.87;;
10074;SDS011;5076;42.680;23.288;2022-07-06T03:45:23;7.40;;;4.83;;
10074;SDS011;5076;42.680;23.288;2022-07-06T03:47:50;5.30;;;4.80;;
10074;SDS011;5076;42.680;23.288;2022-07-06T03:50:16;5.10;;;4.60;;
10074;SDS011;5076;42.680;23.288;2022-07-06T03:52:43;5.83;;;4.53;;
10074;SDS011;5076;42.680;23.288;2022-07-06T03:55:11;5.77;;;4.30;;
10074;SDS011;5076;42.680;23.288;2022-07-06T03:57:38;6.83;;;4.87;;
10074;SDS011;5076;42.680;23.288;2022-07-06T04:00:06;6.40;;;4.43;;
10074;SDS011;5076;42.680;23.288;2022-07-06T04:02:33;6.23;;;4.87;;
10074;SDS011;5076;42.680;23.288;2022-07-06T04:04:59;5.47;;;4.63;;
10074;SDS011;5076;42.680;23.288;2022-07-06T04:07:26;4.30;;;3.90;;
10074;SDS011;5076;42.680;23.288;2022-07-06T04:09:53;4.23;;;3.83;;
10074;SDS011;5076;42.680;23.288;2022-07-06T04:12:21;4.30;;;3.70;;
10074;SDS011;5076;42.680;23.288;2022-07-06T04:14:47;5.60;;;4.30;;
10074;SDS011;5076;42.680;23.288;2022-07-06T04:17:14;5.73;;;4.70;;
10074;SDS011;5076;42.680;23.288;2022-07-06T04:19:58;4.20;;;3.80;;
10074;SDS011;5076;42.680;23.288;2022-07-06T04:22:25;5.43;;;4.20;;
10074;SDS011;5076;42.680;23.288;2022-07-06T04:24:51;6.20;;;5.03;;
10074;SDS011;5076;42.680;23.288;2022-07-06T04:27:18;4.67;;;4.13;;
10074;SDS011;5076;42.680;23.288;2022-07-06T04:29:46;4.80;;;4.20;;
10074;SDS011;5076;42.680;23.288;2022-07-06T04:32:12;7.00;;;4.93;;
10074;SDS011;5076;42.680;23.288;2022-07-06T04:34:39;7.53;;;4.37;;
10074;SDS011;5076;42.680;23.288;2022-07-06T04:37:05;5.07;;;4.40;;
10074;SDS011;5076;42.680;23.288;2022-07-06T04:39:32;6.67;;;4.83;;
10074;SDS011;5076;42.680;23.288;2022-07-06T04:41:58;6.47;;;4.33;;
10074;SDS011;5076;42.680;23.288;2022-07-06T04:44:25;5.83;;;4.70;;
10074;SDS011;5076;42.680;23.288;2022-07-06T04:46:53;5.43;;;4.87;;
10074;SDS011;5076;42.680;23.288;2022-07-06T04:49:19;6.07;;;4.90;;
10074;SDS011;5076;42.680;23.288;2022-07-06T04:51:46;8.30;;;6.50;;
10074;SDS011;5076;42.680;23.288;2022-07-06T04:54:12;10.50;;;7.13;;
10074;SDS011;5076;42.680;23.288;2022-07-06T04:56:39;9.17;;;7.33;;
10074;SDS011;5076;42.680;23.288;2022-07-06T04:59:05;8.67;;;7.07;;
10074;SDS011;5076;42.680;23.288;2022-07-06T05:01:32;8.63;;;7.73;;
10074;SDS011;5076;42.680;23.288;2022-07-06T05:04:00;8.97;;;7.63;;
10074;SDS011;5076;42.680;23.288;2022-07-06T05:06:26;10.50;;;8.50;;
10074;SDS011;5076;42.680;23.288;2022-07-06T05:08:53;8.77;;;7.93;;
10074;SDS011;5076;42.680;23.288;2022-07-06T05:11:19;10.10;;;9.07;;
10074;SDS011;5076;42.680;23.288;2022-07-06T05:13:46;9.13;;;8.27;;
10074;SDS011;5076;42.680;23.288;2022-07-06T05:16:12;9.40;;;8.60;;
10074;SDS011;5076;42.680;23.288;2022-07-06T05:18:39;12.93;;;9.33;;
10074;SDS011;5076;42.680;23.288;2022-07-06T05:21:07;9.13;;;8.23;;
10074;SDS011;5076;42.680;23.288;2022-07-06T05:23:35;11.53;;;9.03;;
10074;SDS011;5076;42.680;23.288;2022-07-06T05:26:02;9.37;;;8.47;;
10074;SDS011;5076;42.680;23.288;2022-07-06T05:28:28;9.20;;;8.30;;
10074;SDS011;5076;42.680;23.288;2022-07-06T05:30:55;9.03;;;7.93;;
10074;SDS011;5076;42.680;23.288;2022-07-06T05:33:21;9.03;;;8.13;;
10074;SDS011;5076;42.680;23.288;2022-07-06T05:35:48;7.60;;;6.80;;
10074;SDS011;5076;42.680;23.288;2022-07-06T05:38:16;8.73;;;7.90;;
10074;SDS011;5076;42.680;23.288;2022-07-06T05:40:43;10.63;;;7.10;;
10074;SDS011;5076;42.680;23.288;2022-07-06T05:43:10;8.13;;;6.50;;
10074;SDS011;5076;42.680;23.288;2022-07-06T05:45:36;11.87;;;7.13;;
10074;SDS011;5076;42.680;23.288;2022-07-06T05:48:03;7.80;;;6.80;;
10074;SDS011;5076;42.680;23.288;2022-07-06T05:50:47;7.97;;;6.80;;
10074;SDS011;5076;42.680;23.288;2022-07-06T05:53:14;6.30;;;5.70;;
10074;SDS011;5076;42.680;23.288;2022-07-06T05:55:41;7.50;;;6.80;;
10074;SDS011;5076;42.680;23.288;2022-07-06T05:58:08;8.20;;;6.60;;
10074;SDS011;5076;42.680;23.288;2022-07-06T06:00:35;8.20;;;6.33;;
10074;SDS011;5076;42.680;23.288;2022-07-06T06:03:01;8.33;;;6.60;;
10074;SDS011;5076;42.680;23.288;2022-07-06T06:05:28;7.90;;;6.47;;
10074;SDS011;5076;42.680;23.288;2022-07-06T06:07:54;9.03;;;6.80;;
10074;SDS011;5076;42.680;23.288;2022-07-06T06:10:21;7.40;;;6.27;;
10074;SDS011;5076;42.680;23.288;2022-07-06T06:12:49;9.53;;;6.43;;
10074;SDS011;5076;42.680;23.288;2022-07-06T06:15:16;7.30;;;6.60;;
10074;SDS011;5076;42.680;23.288;2022-07-06T06:17:43;6.80;;;6.07;;
10074;SDS011;5076;42.680;23.288;2022-07-06T06:20:10;9.17;;;6.33;;
10074;SDS011;5076;42.680;23.288;2022-07-06T06:22:47;7.43;;;6.60;;
10074;SDS011;5076;42.680;23.288;2022-07-06T06:25:21;8.63;;;6.63;;
10074;SDS011;5076;42.680;23.288;2022-07-06T06:27:58;10.37;;;7.00;;
10074;SDS011;5076;42.680;23.288;2022-07-06T06:30:31;8.30;;;6.93;;
10074;SDS011;5076;42.680;23.288;2022-07-06T06:35:46;8.23;;;7.43;;
10074;SDS011;5076;42.680;23.288;2022-07-06T06:38:13;8.30;;;7.50;;
10074;SDS011;5076;42.680;23.288;2022-07-06T06:40:39;10.60;;;8.40;;
10074;SDS011;5076;42.680;23.288;2022-07-06T06:43:07;9.93;;;8.57;;
10074;SDS011;5076;42.680;23.288;2022-07-06T06:45:34;11.13;;;8.60;;
10074;SDS011;5076;42.680;23.288;2022-07-06T06:48:00;10.00;;;9.00;;
10074;SDS011;5076;42.680;23.288;2022-07-06T06:50:27;9.40;;;8.60;;
10074;SDS011;5076;42.680;23.288;2022-07-06T06:52:53;9.47;;;8.03;;
10074;SDS011;5076;42.680;23.288;2022-07-06T06:55:20;9.50;;;8.60;;
10074;SDS011;5076;42.680;23.288;2022-07-06T06:57:47;9.00;;;8.10;;
10074;SDS011;5076;42.680;23.288;2022-07-06T07:00:15;8.87;;;8.00;;
10074;SDS011;5076;42.680;23.288;2022-07-06T07:02:41;11.27;;;9.87;;
10074;SDS011;5076;42.680;23.288;2022-07-06T07:05:08;9.50;;;8.60;;
10074;SDS011;5076;42.680;23.288;2022-07-06T07:07:35;10.00;;;8.83;;
10074;SDS011;5076;42.680;23.288;2022-07-06T07:10:02;9.17;;;8.37;;
10074;SDS011;5076;42.680;23.288;2022-07-06T07:12:28;9.30;;;8.33;;
10074;SDS011;5076;42.680;23.288;2022-07-06T07:14:55;9.90;;;8.70;;
10074;SDS011;5076;42.680;23.288;2022-07-06T07:17:23;10.90;;;9.23;;
10074;SDS011;5076;42.680;23.288;2022-07-06T07:19:49;9.50;;;8.70;;
10074;SDS011;5076;42.680;23.288;2022-07-06T07:22:16;10.60;;;8.97;;
10074;SDS011;5076;42.680;23.288;2022-07-06T07:24:43;10.97;;;9.90;;
10074;SDS011;5076;42.680;23.288;2022-07-06T07:27:09;10.37;;;9.40;;
10074;SDS011;5076;42.680;23.288;2022-07-06T07:29:36;11.00;;;9.37;;
10074;SDS011;5076;42.680;23.288;2022-07-06T07:32:02;10.10;;;9.10;;
10074;SDS011;5076;42.680;23.288;2022-07-06T07:34:30;10.40;;;9.40;;
10074;SDS011;5076;42.680;23.288;2022-07-06T07:36:57;11.13;;;9.03;;
10074;SDS011;5076;42.680;23.288;2022-07-06T07:39:23;9.90;;;8.90;;
10074;SDS011;5076;42.680;23.288;2022-07-06T07:41:50;12.03;;;9.23;;
10074;SDS011;5076;42.680;23.288;2022-07-06T07:44:16;9.93;;;8.70;;
10074;SDS011;5076;42.680;23.288;2022-07-06T07:46:43;8.77;;;7.97;;
10074;SDS011;5076;42.680;23.288;2022-07-06T07:49:10;11.93;;;8.57;;
10074;SDS011;5076;42.680;23.288;2022-07-06T07:51:38;10.37;;;8.67;;
10074;SDS011;5076;42.680;23.288;2022-07-06T07:54:06;8.93;;;8.17;;
10074;SDS011;5076;42.680;23.288;2022-07-06T07:56:33;9.27;;;7.67;;
10074;SDS011;5076;42.680;23.288;2022-07-06T07:58:59;9.23;;;8.13;;
10074;SDS011;5076;42.680;23.288;2022-07-06T08:01:26;9.17;;;8.23;;
10074;SDS011;5076;42.680;23.288;2022-07-06T08:03:52;9.00;;;8.03;;
10074;SDS011;5076;42.680;23.288;2022-07-06T08:06:19;9.43;;;8.40;;
10074;SDS011;5076;42.680;23.288;2022-07-06T08:08:47;11.87;;;9.30;;
10074;SDS011;5076;42.680;23.288;2022-07-06T08:11:14;10.87;;;9.07;;
10074;SDS011;5076;42.680;23.288;2022-07-06T08:13:40;9.13;;;7.83;;
10074;SDS011;5076;42.680;23.288;2022-07-06T08:16:07;7.73;;;7.03;;
10074;SDS011;5076;42.680;23.288;2022-07-06T08:18:35;8.77;;;7.97;;
10074;SDS011;5076;42.680;23.288;2022-07-06T08:21:01;8.50;;;7.70;;
10074;SDS011;5076;42.680;23.288;2022-07-06T08:23:28;9.30;;;7.60;;
10074;SDS011;5076;42.680;23.288;2022-07-06T08:25:56;10.63;;;8.33;;
10074;SDS011;5076;42.680;23.288;2022-07-06T08:28:23;8.93;;;8.13;;
10074;SDS011;5076;42.680;23.288;2022-07-06T08:30:49;9.73;;;8.73;;
10074;SDS011;5076;42.680;23.288;2022-07-06T08:33:16;9.63;;;8.63;;
10074;SDS011;5076;42.680;23.288;2022-07-06T08:35:42;8.80;;;7.97;;
10074;SDS011;5076;42.680;23.288;2022-07-06T08:38:09;9.40;;;7.83;;
10074;SDS011;5076;42.680;23.288;2022-07-06T08:40:35;10.03;;;7.90;;
10074;SDS011;5076;42.680;23.288;2022-07-06T08:43:06;8.30;;;7.43;;
10074;SDS011;5076;42.680;23.288;2022-07-06T08:45:32;9.60;;;7.83;;
10074;SDS011;5076;42.680;23.288;2022-07-06T08:48:02;8.53;;;7.73;;
10074;SDS011;5076;42.680;23.288;2022-07-06T08:50:30;9.50;;;8.50;;
10074;SDS011;5076;42.680;23.288;2022-07-06T08:52:57;9.07;;;8.17;;
10074;SDS011;5076;42.680;23.288;2022-07-06T08:55:24;9.60;;;8.53;;
10074;SDS011;5076;42.680;23.288;2022-07-06T08:57:51;8.17;;;7.47;;
10074;SDS011;5076;42.680;23.288;2022-07-06T09:00:19;10.57;;;8.80;;
10074;SDS011;5076;42.680;23.288;2022-07-06T09:02:46;11.97;;;8.37;;
10074;SDS011;5076;42.680;23.288;2022-07-06T09:05:14;7.87;;;7.17;;
10074;SDS011;5076;42.680;23.288;2022-07-06T09:07:41;9.13;;;8.37;;
10074;SDS011;5076;42.680;23.288;2022-07-06T09:10:08;8.10;;;7.30;;
10074;SDS011;5076;42.680;23.288;2022-07-06T09:12:35;7.97;;;7.27;;
10074;SDS011;5076;42.680;23.288;2022-07-06T09:15:02;8.47;;;7.67;;
10074;SDS011;5076;42.680;23.288;2022-07-06T09:17:30;8.90;;;8.10;;
10074;SDS011;5076;42.680;23.288;2022-07-06T09:19:57;11.80;;;8.13;;
10074;SDS011;5076;42.680;23.288;2022-07-06T09:22:28;7.67;;;7.07;;
10074;SDS011;5076;42.680;23.288;2022-07-06T09:25:06;8.43;;;7.63;;
10074;SDS011;5076;42.680;23.288;2022-07-06T09:27:36;8.30;;;7.53;;
10074;SDS011;5076;42.680;23.288;2022-07-06T09:30:03;7.57;;;6.97;;
10074;SDS011;5076;42.680;23.288;2022-07-06T09:32:32;7.47;;;6.73;;
10074;SDS011;5076;42.680;23.288;2022-07-06T09:35:04;8.27;;;7.07;;
10074;SDS011;5076;42.680;23.288;2022-07-06T09:37:30;8.30;;;7.50;;
10074;SDS011;5076;42.680;23.288;2022-07-06T09:39:57;8.63;;;7.93;;
10074;SDS011;5076;42.680;23.288;2022-07-06T09:42:23;10.00;;;9.07;;
10074;SDS011;5076;42.680;23.288;2022-07-06T09:44:50;10.17;;;8.97;;
10074;SDS011;5076;42.680;23.288;2022-07-06T09:47:17;12.73;;;9.93;;
10074;SDS011;5076;42.680;23.288;2022-07-06T09:49:45;10.33;;;9.33;;
10074;SDS011;5076;42.680;23.288;2022-07-06T09:52:13;10.13;;;8.80;;
10074;SDS011;5076;42.680;23.288;2022-07-06T09:54:40;9.63;;;8.77;;
10074;SDS011;5076;42.680;23.288;2022-07-06T09:57:07;9.77;;;8.83;;
10074;SDS011;5076;42.680;23.288;2022-07-06T09:59:34;10.37;;;9.30;;
10074;SDS011;5076;42.680;23.288;2022-07-06T10:02:01;10.20;;;9.27;;
10074;SDS011;5076;42.680;23.288;2022-07-06T10:04:28;9.83;;;9.03;;
10074;SDS011;5076;42.680;23.288;2022-07-06T10:06:57;9.73;;;8.83;;
10074;SDS011;5076;42.680;23.288;2022-07-06T10:09:25;9.73;;;8.83;;
10074;SDS011;5076;42.680;23.288;2022-07-06T10:11:52;9.03;;;8.23;;
10074;SDS011;5076;42.680;23.288;2022-07-06T10:14:20;10.57;;;9.60;;
10074;SDS011;5076;42.680;23.288;2022-07-06T10:16:47;9.90;;;8.97;;
10074;SDS011;5076;42.680;23.288;2022-07-06T10:19:15;9.53;;;8.63;;
10074;SDS011;5076;42.680;23.288;2022-07-06T10:21:42;11.00;;;9.63;;
10074;SDS011;5076;42.680;23.288;2022-07-06T10:24:10;9.60;;;8.70;;
10074;SDS011;5076;42.680;23.288;2022-07-06T10:26:37;10.23;;;8.70;;
10074;SDS011;5076;42.680;23.288;2022-07-06T10:29:04;10.67;;;9.67;;
10074;SDS011;5076;42.680;23.288;2022-07-06T10:31:31;10.13;;;9.27;;
10074;SDS011;5076;42.680;23.288;2022-07-06T10:33:58;10.60;;;9.70;;
10074;SDS011;5076;42.680;23.288;2022-07-06T10:36:26;10.10;;;9.07;;
10074;SDS011;5076;42.680;23.288;2022-07-06T10:38:53;9.00;;;8.10;;
10074;SDS011;5076;42.680;23.288;2022-07-06T10:41:31;9.27;;;8.37;;
10074;SDS011;5076;42.680;23.288;2022-07-06T10:43:56;9.83;;;8.67;;
10074;SDS011;5076;42.680;23.288;2022-07-06T10:46:23;8.63;;;7.93;;
10074;SDS011;5076;42.680;23.288;2022-07-06T10:48:54;9.50;;;8.70;;
10074;SDS011;5076;42.680;23.288;2022-07-06T10:51:22;10.57;;;9.67;;
10074;SDS011;5076;42.680;23.288;2022-07-06T10:53:54;10.47;;;9.57;;
10074;SDS011;5076;42.680;23.288;2022-07-06T10:56:22;9.27;;;8.30;;
10074;SDS011;5076;42.680;23.288;2022-07-06T10:59:02;12.10;;;10.90;;
10074;SDS011;5076;42.680;23.288;2022-07-06T11:01:29;10.40;;;9.40;;
10074;SDS011;5076;42.680;23.288;2022-07-06T11:04:04;9.83;;;9.03;;
10074;SDS011;5076;42.680;23.288;2022-07-06T11:06:32;9.63;;;8.83;;
10074;SDS011;5076;42.680;23.288;2022-07-06T11:08:59;9.07;;;8.27;;
10074;SDS011;5076;42.680;23.288;2022-07-06T11:11:26;9.27;;;8.27;;
10074;SDS011;5076;42.680;23.288;2022-07-06T11:14:05;9.03;;;8.30;;
10074;SDS011;5076;42.680;23.288;2022-07-06T11:16:33;10.33;;;9.33;;
10074;SDS011;5076;42.680;23.288;2022-07-06T11:19:02;10.87;;;9.90;;
10074;SDS011;5076;42.680;23.288;2022-07-06T11:21:33;11.17;;;10.17;;
10074;SDS011;5076;42.680;23.288;2022-07-06T11:24:00;10.13;;;9.23;;
10074;SDS011;5076;42.680;23.288;2022-07-06T11:26:27;10.53;;;9.53;;
10074;SDS011;5076;42.680;23.288;2022-07-06T11:28:53;10.10;;;9.20;;
10074;SDS011;5076;42.680;23.288;2022-07-06T11:31:21;14.77;;;9.97;;
10074;SDS011;5076;42.680;23.288;2022-07-06T11:33:48;10.50;;;9.50;;
10074;SDS011;5076;42.680;23.288;2022-07-06T11:36:15;8.83;;;8.13;;
10074;SDS011;5076;42.680;23.288;2022-07-06T11:38:42;10.10;;;9.17;;
10074;SDS011;5076;42.680;23.288;2022-07-06T11:41:09;9.40;;;8.60;;
10074;SDS011;5076;42.680;23.288;2022-07-06T11:43:38;8.90;;;8.17;;
10074;SDS011;5076;42.680;23.288;2022-07-06T11:46:17;8.63;;;7.80;;
10074;SDS011;5076;42.680;23.288;2022-07-06T11:48:46;10.07;;;9.07;;
10074;SDS011;5076;42.680;23.288;2022-07-06T11:51:13;9.53;;;8.73;;
10074;SDS011;5076;42.680;23.288;2022-07-06T11:53:42;9.63;;;8.70;;
10074;SDS011;5076;42.680;23.288;2022-07-06T11:56:08;9.87;;;8.90;;
10074;SDS011;5076;42.680;23.288;2022-07-06T11:58:35;9.70;;;8.90;;
10074;SDS011;5076;42.680;23.288;2022-07-06T12:01:02;9.23;;;8.43;;
10074;SDS011;5076;42.680;23.288;2022-07-06T12:03:29;9.70;;;8.90;;
10074;SDS011;5076;42.680;23.288;2022-07-06T12:05:59;9.63;;;8.63;;
10074;SDS011;5076;42.680;23.288;2022-07-06T12:08:26;8.67;;;7.87;;
10074;SDS011;5076;42.680;23.288;2022-07-06T12:10:53;9.87;;;8.90;;
10074;SDS011;5076;42.680;23.288;2022-07-06T12:13:20;11.10;;;7.93;;
10074;SDS011;5076;42.680;23.288;2022-07-06T12:15:47;8.17;;;7.47;;
10074;SDS011;5076;42.680;23.288;2022-07-06T12:18:13;7.70;;;7.00;;
10074;SDS011;5076;42.680;23.288;2022-07-06T12:20:40;7.83;;;7.07;;
10074;SDS011;5076;42.680;23.288;2022-07-06T12:23:08;7.37;;;6.73;;
10074;SDS011;5076;42.680;23.288;2022-07-06T12:25:35;6.73;;;6.23;;
10074;SDS011;5076;42.680;23.288;2022-07-06T12:28:01;8.17;;;6.77;;
10074;SDS011;5076;42.680;23.288;2022-07-06T12:30:28;7.43;;;6.73;;
10074;SDS011;5076;42.680;23.288;2022-07-06T12:33:10;7.10;;;6.40;;
10074;SDS011;5076;42.680;23.288;2022-07-06T12:35:37;7.53;;;6.93;;
10074;SDS011;5076;42.680;23.288;2022-07-06T12:38:04;7.20;;;6.60;;
10074;SDS011;5076;42.680;23.288;2022-07-06T12:40:32;6.60;;;6.00;;
10074;SDS011;5076;42.680;23.288;2022-07-06T12:42:58;6.50;;;5.90;;
10074;SDS011;5076;42.680;23.288;2022-07-06T12:45:26;6.23;;;5.70;;
10074;SDS011;5076;42.680;23.288;2022-07-06T12:47:59;5.57;;;4.67;;
10074;SDS011;5076;42.680;23.288;2022-07-06T12:50:33;5.53;;;4.73;;
10074;SDS011;5076;42.680;23.288;2022-07-06T12:53:00;4.60;;;4.13;;
10074;SDS011;5076;42.680;23.288;2022-07-06T12:55:27;4.80;;;4.40;;
10074;SDS011;5076;42.680;23.288;2022-07-06T12:57:58;4.83;;;4.43;;
10074;SDS011;5076;42.680;23.288;2022-07-06T13:00:25;5.37;;;4.87;;
10074;SDS011;5076;42.680;23.288;2022-07-06T13:02:52;4.40;;;4.00;;
10074;SDS011;5076;42.680;23.288;2022-07-06T13:05:24;4.40;;;3.97;;
10074;SDS011;5076;42.680;23.288;2022-07-06T13:07:53;7.53;;;4.53;;
10074;SDS011;5076;42.680;23.288;2022-07-06T13:10:20;3.67;;;3.37;;
10074;SDS011;5076;42.680;23.288;2022-07-06T13:12:47;3.70;;;3.40;;
10074;SDS011;5076;42.680;23.288;2022-07-06T13:15:15;5.47;;;3.53;;
10074;SDS011;5076;42.680;23.288;2022-07-06T13:17:42;3.37;;;3.07;;
10074;SDS011;5076;42.680;23.288;2022-07-06T13:20:09;3.50;;;3.17;;
10074;SDS011;5076;42.680;23.288;2022-07-06T13:22:36;3.90;;;3.27;;
10074;SDS011;5076;42.680;23.288;2022-07-06T13:25:03;2.90;;;2.70;;
10074;SDS011;5076;42.680;23.288;2022-07-06T13:27:30;3.23;;;3.00;;
10074;SDS011;5076;42.680;23.288;2022-07-06T13:29:57;4.53;;;2.90;;
10074;SDS011;5076;42.680;23.288;2022-07-06T13:32:25;3.73;;;3.00;;
10074;SDS011;5076;42.680;23.288;2022-07-06T13:34:51;3.30;;;2.83;;
10074;SDS011;5076;42.680;23.288;2022-07-06T13:37:18;2.80;;;2.60;;
10074;SDS011;5076;42.680;23.288;2022-07-06T13:39:45;2.53;;;2.33;;
10074;SDS011;5076;42.680;23.288;2022-07-06T13:42:12;3.50;;;2.40;;
10074;SDS011;5076;42.680;23.288;2022-07-06T13:44:38;2.13;;;2.03;;
10074;SDS011;5076;42.680;23.288;2022-07-06T13:47:05;1.90;;;1.80;;
10074;SDS011;5076;42.680;23.288;2022-07-06T13:49:33;3.00;;;1.93;;
10074;SDS011;5076;42.680;23.288;2022-07-06T13:51:59;3.17;;;2.23;;
10074;SDS011;5076;42.680;23.288;2022-07-06T13:54:28;2.50;;;1.90;;
10074;SDS011;5076;42.680;23.288;2022-07-06T13:56:55;3.40;;;1.80;;
10074;SDS011;5076;42.680;23.288;2022-07-06T13:59:22;3.80;;;2.10;;
10074;SDS011;5076;42.680;23.288;2022-07-06T14:01:48;1.90;;;1.80;;
10074;SDS011;5076;42.680;23.288;2022-07-06T14:04:15;2.17;;;1.90;;
10074;SDS011;5076;42.680;23.288;2022-07-06T14:06:43;2.23;;;2.00;;
10074;SDS011;5076;42.680;23.288;2022-07-06T14:09:09;2.20;;;2.00;;
10074;SDS011;5076;42.680;23.288;2022-07-06T14:11:36;1.95;;;1.70;;
10074;SDS011;5076;42.680;23.288;2022-07-06T14:14:02;2.30;;;1.70;;
10074;SDS011;5076;42.680;23.288;2022-07-06T14:16:31;3.15;;;1.98;;
10074;SDS011;5076;42.680;23.288;2022-07-06T14:18:59;1.77;;;1.67;;
10074;SDS011;5076;42.680;23.288;2022-07-06T14:21:25;1.80;;;1.70;;
10074;SDS011;5076;42.680;23.288;2022-07-06T14:23:53;1.83;;;1.73;;
10074;SDS011;5076;42.680;23.288;2022-07-06T14:26:20;5.78;;;1.70;;
10074;SDS011;5076;42.680;23.288;2022-07-06T14:28:47;2.17;;;1.98;;
10074;SDS011;5076;42.680;23.288;2022-07-06T14:31:13;1.90;;;1.67;;
10074;SDS011;5076;42.680;23.288;2022-07-06T14:33:40;2.25;;;2.03;;
10074;SDS011;5076;42.680;23.288;2022-07-06T14:36:06;1.80;;;1.70;;
10074;SDS011;5076;42.680;23.288;2022-07-06T14:38:33;2.05;;;1.85;;
10074;SDS011;5076;42.680;23.288;2022-07-06T14:41:01;1.88;;;1.77;;
10074;SDS011;5076;42.680;23.288;2022-07-06T14:43:28;4.03;;;1.90;;
10074;SDS011;5076;42.680;23.288;2022-07-06T14:45:54;1.70;;;1.60;;
10074;SDS011;5076;42.680;23.288;2022-07-06T14:48:21;2.35;;;1.88;;